sensor_id;sensor_type;location;lat;lon;timestamp;temperature;humidity
48488;DHT22;34289;48.572;13.378;2023-02-15T00:01:18;-0.20;99.90
48488;DHT22;34289;48.572;13.378;2023-02-15T00:03:44;-0.20;99.90
48488;DHT22;34289;48.572;13.378;2023-02-15T00:06:09;0.30;99.90
48488;DHT22;34289;48.572;13.378;2023-02-15T00:08:35;-0.30;99.90
48488;DHT22;34289;48.572;13.378;2023-02-15T00:11:07;-0.40;99.90
48488;DHT22;34289;48.572;13.378;2023-02-15T00:13:33;-0.50;99.90
48488;DHT22;34289;48.572;13.378;2023-02-15T00:16:02;-0.50;99.90
48488;DHT22;34289;48.572;13.378;2023-02-15T00:18:29;-0.40;99.90
48488;DHT22;34289;48.572;13.378;2023-02-15T00:20:54;-0.20;99.90
48488;DHT22;34289;48.572;13.378;2023-02-15T00:23:20;-0.30;99.90
48488;DHT22;34289;48.572;13.378;2023-02-15T00:25:46;-0.40;99.90
48488;DHT22;34289;48.572;13.378;2023-02-15T00:28:11;-0.50;99.90
48488;DHT22;34289;48.572;13.378;2023-02-15T00:30:37;-0.50;99.90
48488;DHT22;34289;48.572;13.378;2023-02-15T00:33:05;-0.50;99.90
48488;DHT22;34289;48.572;13.378;2023-02-15T00:35:31;-0.60;99.90
48488;DHT22;34289;48.572;13.378;2023-02-15T00:37:56;-0.60;99.90
48488;DHT22;34289;48.572;13.378;2023-02-15T00:40:22;-0.60;99.90
48488;DHT22;34289;48.572;13.378;2023-02-15T00:42:48;-0.50;99.90
48488;DHT22;34289;48.572;13.378;2023-02-15T00:45:17;-0.50;99.90
48488;DHT22;34289;48.572;13.378;2023-02-15T00:47:43;-0.50;99.90
48488;DHT22;34289;48.572;13.378;2023-02-15T00:50:08;-0.40;99.90
48488;DHT22;34289;48.572;13.378;2023-02-15T00:52:34;-0.30;99.90
48488;DHT22;34289;48.572;13.378;2023-02-15T00:55:00;-0.40;99.90
48488;DHT22;34289;48.572;13.378;2023-02-15T00:57:25;-0.40;99.90
48488;DHT22;34289;48.572;13.378;2023-02-15T00:59:51;-0.40;99.90
48488;DHT22;34289;48.572;13.378;2023-02-15T01:02:16;-0.50;99.90
48488;DHT22;34289;48.572;13.378;2023-02-15T01:04:42;-0.40;99.90
48488;DHT22;34289;48.572;13.378;2023-02-15T01:07:08;-0.50;99.90
48488;DHT22;34289;48.572;13.378;2023-02-15T01:09:33;-0.50;99.90
48488;DHT22;34289;48.572;13.378;2023-02-15T01:11:59;-0.60;99.90
48488;DHT22;34289;48.572;13.378;2023-02-15T01:14:24;-0.60;99.90
48488;DHT22;34289;48.572;13.378;2023-02-15T01:16:50;-0.80;99.90
48488;DHT22;34289;48.572;13.378;2023-02-15T01:19:16;-0.90;99.90
48488;DHT22;34289;48.572;13.378;2023-02-15T01:21:41;-1.00;99.90
48488;DHT22;34289;48.572;13.378;2023-02-15T01:24:12;-1.00;99.90
48488;DHT22;34289;48.572;13.378;2023-02-15T01:26:38;-1.00;99.90
48488;DHT22;34289;48.572;13.378;2023-02-15T01:29:03;-1.00;99.90
48488;DHT22;34289;48.572;13.378;2023-02-15T01:31:29;-1.00;99.90
48488;DHT22;34289;48.572;13.378;2023-02-15T01:33:55;-1.00;99.90
48488;DHT22;34289;48.572;13.378;2023-02-15T01:36:20;-1.00;99.90
48488;DHT22;34289;48.572;13.378;2023-02-15T01:38:46;-1.00;99.90
48488;DHT22;34289;48.572;13.378;2023-02-15T01:41:12;-1.00;99.90
48488;DHT22;34289;48.572;13.378;2023-02-15T01:44:00;-1.10;99.90
48488;DHT22;34289;48.572;13.378;2023-02-15T01:46:39;-1.10;99.90
48488;DHT22;34289;48.572;13.378;2023-02-15T01:49:11;-1.10;99.90
48488;DHT22;34289;48.572;13.378;2023-02-15T01:51:41;-1.10;99.90
48488;DHT22;34289;48.572;13.378;2023-02-15T01:54:17;-1.10;99.90
48488;DHT22;34289;48.572;13.378;2023-02-15T01:56:44;-1.10;99.90
48488;DHT22;34289;48.572;13.378;2023-02-15T01:59:16;-1.10;99.90
48488;DHT22;34289;48.572;13.378;2023-02-15T02:01:43;-1.10;99.90
48488;DHT22;34289;48.572;13.378;2023-02-15T02:07:00;-1.20;99.90
48488;DHT22;34289;48.572;13.378;2023-02-15T02:09:27;-1.20;99.90
48488;DHT22;34289;48.572;13.378;2023-02-15T02:11:54;-1.20;99.90
48488;DHT22;34289;48.572;13.378;2023-02-15T02:14:20;-1.10;99.90
48488;DHT22;34289;48.572;13.378;2023-02-15T02:17:12;-0.90;99.90
48488;DHT22;34289;48.572;13.378;2023-02-15T02:19:45;-0.90;99.90
48488;DHT22;34289;48.572;13.378;2023-02-15T02:22:33;-1.00;99.90
48488;DHT22;34289;48.572;13.378;2023-02-15T02:27:50;-1.10;99.90
48488;DHT22;34289;48.572;13.378;2023-02-15T02:30:35;-1.00;99.90
48488;DHT22;34289;48.572;13.378;2023-02-15T02:41:47;-1.10;99.90
48488;DHT22;34289;48.572;13.378;2023-02-15T02:44:43;-1.20;99.90
48488;DHT22;34289;48.572;13.378;2023-02-15T02:47:20;-1.10;99.90
48488;DHT22;34289;48.572;13.378;2023-02-15T02:49:52;-1.10;99.90
48488;DHT22;34289;48.572;13.378;2023-02-15T02:52:47;-1.00;99.90
48488;DHT22;34289;48.572;13.378;2023-02-15T02:58:01;-0.70;99.90
48488;DHT22;34289;48.572;13.378;2023-02-15T03:00:30;-0.90;99.90
48488;DHT22;34289;48.572;13.378;2023-02-15T03:03:04;-0.70;99.90
48488;DHT22;34289;48.572;13.378;2023-02-15T03:05:32;-0.80;99.90
48488;DHT22;34289;48.572;13.378;2023-02-15T03:08:01;-1.00;99.90
48488;DHT22;34289;48.572;13.378;2023-02-15T03:10:32;-1.20;99.90
48488;DHT22;34289;48.572;13.378;2023-02-15T03:12:59;-1.30;99.90
48488;DHT22;34289;48.572;13.378;2023-02-15T03:15:31;-1.20;99.90
48488;DHT22;34289;48.572;13.378;2023-02-15T03:18:22;-1.20;99.90
48488;DHT22;34289;48.572;13.378;2023-02-15T03:20:49;-1.20;99.90
48488;DHT22;34289;48.572;13.378;2023-02-15T03:23:25;-1.10;99.90
48488;DHT22;34289;48.572;13.378;2023-02-15T03:25:57;-1.00;99.90
48488;DHT22;34289;48.572;13.378;2023-02-15T03:28:43;-1.00;99.90
48488;DHT22;34289;48.572;13.378;2023-02-15T03:31:12;-0.80;99.90
48488;DHT22;34289;48.572;13.378;2023-02-15T03:33:42;-0.80;99.90
48488;DHT22;34289;48.572;13.378;2023-02-15T03:36:15;-0.80;99.90
48488;DHT22;34289;48.572;13.378;2023-02-15T03:42:25;-1.00;99.90
48488;DHT22;34289;48.572;13.378;2023-02-15T03:44:58;-0.90;99.90
48488;DHT22;34289;48.572;13.378;2023-02-15T03:47:28;-0.90;99.90
48488;DHT22;34289;48.572;13.378;2023-02-15T03:50:11;-0.70;99.90
48488;DHT22;34289;48.572;13.378;2023-02-15T03:52:58;-0.60;99.90
48488;DHT22;34289;48.572;13.378;2023-02-15T03:55:26;-0.60;99.90
48488;DHT22;34289;48.572;13.378;2023-02-15T03:57:52;-0.70;99.90
48488;DHT22;34289;48.572;13.378;2023-02-15T04:00:40;-0.80;99.90
48488;DHT22;34289;48.572;13.378;2023-02-15T04:03:40;-0.90;99.90
48488;DHT22;34289;48.572;13.378;2023-02-15T04:06:07;-0.90;99.90
48488;DHT22;34289;48.572;13.378;2023-02-15T04:08:32;-0.90;99.90
48488;DHT22;34289;48.572;13.378;2023-02-15T04:11:16;-0.90;99.90
48488;DHT22;34289;48.572;13.378;2023-02-15T04:13:42;-0.90;99.90
48488;DHT22;34289;48.572;13.378;2023-02-15T04:16:08;-0.80;99.90
48488;DHT22;34289;48.572;13.378;2023-02-15T04:18:38;-0.70;99.90
48488;DHT22;34289;48.572;13.378;2023-02-15T04:21:25;-0.70;99.90
48488;DHT22;34289;48.572;13.378;2023-02-15T04:24:10;-0.70;99.90
48488;DHT22;34289;48.572;13.378;2023-02-15T04:26:54;-0.80;99.90
48488;DHT22;34289;48.572;13.378;2023-02-15T04:29:21;-0.90;99.90
48488;DHT22;34289;48.572;13.378;2023-02-15T04:31:47;-0.80;99.90
48488;DHT22;34289;48.572;13.378;2023-02-15T04:34:14;-0.80;99.90
48488;DHT22;34289;48.572;13.378;2023-02-15T04:36:40;-0.70;99.90
48488;DHT22;34289;48.572;13.378;2023-02-15T04:39:07;-0.70;99.90
48488;DHT22;34289;48.572;13.378;2023-02-15T04:41:33;-0.70;99.90
48488;DHT22;34289;48.572;13.378;2023-02-15T04:43:59;-0.90;99.90
48488;DHT22;34289;48.572;13.378;2023-02-15T04:46:26;-1.10;99.90
48488;DHT22;34289;48.572;13.378;2023-02-15T04:48:53;-1.20;99.90
48488;DHT22;34289;48.572;13.378;2023-02-15T04:51:18;-1.20;99.90
48488;DHT22;34289;48.572;13.378;2023-02-15T04:53:44;-1.10;99.90
48488;DHT22;34289;48.572;13.378;2023-02-15T04:56:10;-1.10;99.90
48488;DHT22;34289;48.572;13.378;2023-02-15T04:58:35;-1.20;99.90
48488;DHT22;34289;48.572;13.378;2023-02-15T05:01:02;-1.30;99.90
48488;DHT22;34289;48.572;13.378;2023-02-15T05:03:28;-1.40;99.90
48488;DHT22;34289;48.572;13.378;2023-02-15T05:05:53;-1.30;99.90
48488;DHT22;34289;48.572;13.378;2023-02-15T05:08:19;-1.20;99.90
48488;DHT22;34289;48.572;13.378;2023-02-15T05:10:47;-1.10;99.90
48488;DHT22;34289;48.572;13.378;2023-02-15T05:13:13;-1.10;99.90
48488;DHT22;34289;48.572;13.378;2023-02-15T05:15:38;-1.00;99.90
48488;DHT22;34289;48.572;13.378;2023-02-15T05:18:04;-1.10;99.90
48488;DHT22;34289;48.572;13.378;2023-02-15T05:20:31;-1.20;99.90
48488;DHT22;34289;48.572;13.378;2023-02-15T05:22:57;-1.10;99.90
48488;DHT22;34289;48.572;13.378;2023-02-15T05:25:22;-0.90;99.90
48488;DHT22;34289;48.572;13.378;2023-02-15T05:28:11;-0.90;99.90
48488;DHT22;34289;48.572;13.378;2023-02-15T05:31:10;-0.90;99.90
48488;DHT22;34289;48.572;13.378;2023-02-15T05:33:36;-0.90;99.90
48488;DHT22;34289;48.572;13.378;2023-02-15T05:36:02;-0.90;99.90
48488;DHT22;34289;48.572;13.378;2023-02-15T05:38:28;-0.90;99.90
48488;DHT22;34289;48.572;13.378;2023-02-15T05:40:54;-1.00;99.90
48488;DHT22;34289;48.572;13.378;2023-02-15T05:43:21;-1.00;99.90
48488;DHT22;34289;48.572;13.378;2023-02-15T05:45:51;-1.00;99.90
48488;DHT22;34289;48.572;13.378;2023-02-15T05:48:18;-1.00;99.90
48488;DHT22;34289;48.572;13.378;2023-02-15T05:50:44;-1.00;99.90
48488;DHT22;34289;48.572;13.378;2023-02-15T05:53:10;-1.20;99.90
48488;DHT22;34289;48.572;13.378;2023-02-15T05:55:40;-1.30;99.90
48488;DHT22;34289;48.572;13.378;2023-02-15T05:58:06;-1.30;99.90
48488;DHT22;34289;48.572;13.378;2023-02-15T06:00:33;-1.30;99.90
48488;DHT22;34289;48.572;13.378;2023-02-15T06:02:59;-1.20;99.90
48488;DHT22;34289;48.572;13.378;2023-02-15T06:05:25;-1.20;99.90
48488;DHT22;34289;48.572;13.378;2023-02-15T06:07:50;-1.30;99.90
48488;DHT22;34289;48.572;13.378;2023-02-15T06:10:16;-1.30;99.90
48488;DHT22;34289;48.572;13.378;2023-02-15T06:12:43;-1.30;99.90
48488;DHT22;34289;48.572;13.378;2023-02-15T06:15:09;-1.40;99.90
48488;DHT22;34289;48.572;13.378;2023-02-15T06:17:35;-1.50;99.90
48488;DHT22;34289;48.572;13.378;2023-02-15T06:20:00;-1.50;99.90
48488;DHT22;34289;48.572;13.378;2023-02-15T06:22:26;-1.50;99.90
48488;DHT22;34289;48.572;13.378;2023-02-15T06:24:51;-1.50;99.90
48488;DHT22;34289;48.572;13.378;2023-02-15T06:27:17;-1.60;99.90
48488;DHT22;34289;48.572;13.378;2023-02-15T06:29:43;-1.60;99.90
48488;DHT22;34289;48.572;13.378;2023-02-15T06:32:08;-1.60;99.90
48488;DHT22;34289;48.572;13.378;2023-02-15T06:34:34;-1.60;99.90
48488;DHT22;34289;48.572;13.378;2023-02-15T06:37:00;-1.50;99.90
48488;DHT22;34289;48.572;13.378;2023-02-15T06:39:25;-0.20;99.90
48488;DHT22;34289;48.572;13.378;2023-02-15T06:41:51;-1.40;99.90
48488;DHT22;34289;48.572;13.378;2023-02-15T06:44:17;-1.40;99.90
48488;DHT22;34289;48.572;13.378;2023-02-15T06:46:42;-1.40;99.90
48488;DHT22;34289;48.572;13.378;2023-02-15T06:49:08;-1.40;99.90
48488;DHT22;34289;48.572;13.378;2023-02-15T06:51:34;-1.40;99.90
48488;DHT22;34289;48.572;13.378;2023-02-15T06:53:59;-1.40;99.90
48488;DHT22;34289;48.572;13.378;2023-02-15T06:56:25;-1.50;99.90
48488;DHT22;34289;48.572;13.378;2023-02-15T06:58:51;-1.50;99.90
48488;DHT22;34289;48.572;13.378;2023-02-15T07:01:18;-1.50;99.90
48488;DHT22;34289;48.572;13.378;2023-02-15T07:03:43;-1.50;99.90
48488;DHT22;34289;48.572;13.378;2023-02-15T07:06:09;-1.50;99.90
48488;DHT22;34289;48.572;13.378;2023-02-15T07:08:37;-1.40;99.90
48488;DHT22;34289;48.572;13.378;2023-02-15T07:11:04;-1.30;99.90
48488;DHT22;34289;48.572;13.378;2023-02-15T07:13:48;-1.40;99.90
48488;DHT22;34289;48.572;13.378;2023-02-15T07:16:13;-1.40;99.90
48488;DHT22;34289;48.572;13.378;2023-02-15T07:18:39;-1.40;99.90
48488;DHT22;34289;48.572;13.378;2023-02-15T07:21:05;-1.40;99.90
48488;DHT22;34289;48.572;13.378;2023-02-15T07:23:37;0.90;99.90
48488;DHT22;34289;48.572;13.378;2023-02-15T07:26:04;-1.50;99.90
48488;DHT22;34289;48.572;13.378;2023-02-15T07:28:30;-1.50;99.90
48488;DHT22;34289;48.572;13.378;2023-02-15T07:30:56;-1.50;99.90
48488;DHT22;34289;48.572;13.378;2023-02-15T07:33:23;-1.40;99.90
48488;DHT22;34289;48.572;13.378;2023-02-15T07:35:54;-1.20;99.90
48488;DHT22;34289;48.572;13.378;2023-02-15T07:38:21;-1.20;99.90
48488;DHT22;34289;48.572;13.378;2023-02-15T07:40:47;-1.00;99.90
48488;DHT22;34289;48.572;13.378;2023-02-15T07:43:13;-0.90;99.90
48488;DHT22;34289;48.572;13.378;2023-02-15T07:45:39;-0.80;99.90
48488;DHT22;34289;48.572;13.378;2023-02-15T07:48:05;-0.70;99.90
48488;DHT22;34289;48.572;13.378;2023-02-15T07:50:31;-0.70;99.90
48488;DHT22;34289;48.572;13.378;2023-02-15T07:52:57;-0.90;99.90
48488;DHT22;34289;48.572;13.378;2023-02-15T07:55:23;-0.90;99.90
48488;DHT22;34289;48.572;13.378;2023-02-15T07:57:50;-0.80;99.90
48488;DHT22;34289;48.572;13.378;2023-02-15T08:00:17;-0.80;99.90
48488;DHT22;34289;48.572;13.378;2023-02-15T08:02:51;-0.80;99.90
48488;DHT22;34289;48.572;13.378;2023-02-15T08:05:37;-0.80;99.90
48488;DHT22;34289;48.572;13.378;2023-02-15T08:08:03;-0.90;99.90
48488;DHT22;34289;48.572;13.378;2023-02-15T08:10:28;-0.80;99.90
48488;DHT22;34289;48.572;13.378;2023-02-15T08:13:13;-0.80;99.90
48488;DHT22;34289;48.572;13.378;2023-02-15T08:15:38;-0.60;99.90
48488;DHT22;34289;48.572;13.378;2023-02-15T08:18:04;-0.50;99.90
48488;DHT22;34289;48.572;13.378;2023-02-15T08:20:30;-0.60;99.90
48488;DHT22;34289;48.572;13.378;2023-02-15T08:22:56;-0.50;99.90
48488;DHT22;34289;48.572;13.378;2023-02-15T11:33:39;0.70;99.90
48488;DHT22;34289;48.572;13.378;2023-02-15T11:39:13;0.80;99.90
48488;DHT22;34289;48.572;13.378;2023-02-15T11:41:48;0.80;99.90
48488;DHT22;34289;48.572;13.378;2023-02-15T11:44:24;0.70;99.90
48488;DHT22;34289;48.572;13.378;2023-02-15T11:46:52;0.70;99.90
48488;DHT22;34289;48.572;13.378;2023-02-15T11:49:30;0.70;99.90
48488;DHT22;34289;48.572;13.378;2023-02-15T11:51:58;1.00;99.90
48488;DHT22;34289;48.572;13.378;2023-02-15T11:54:29;1.10;99.90
48488;DHT22;34289;48.572;13.378;2023-02-15T11:57:01;1.20;99.90
48488;DHT22;34289;48.572;13.378;2023-02-15T11:59:34;1.20;99.90
48488;DHT22;34289;48.572;13.378;2023-02-15T12:02:02;1.40;99.90
48488;DHT22;34289;48.572;13.378;2023-02-15T12:07:01;2.00;99.90
48488;DHT22;34289;48.572;13.378;2023-02-15T12:12:25;1.30;99.90
48488;DHT22;34289;48.572;13.378;2023-02-15T12:14:53;1.50;99.90
48488;DHT22;34289;48.572;13.378;2023-02-15T12:17:41;1.50;99.90
48488;DHT22;34289;48.572;13.378;2023-02-15T12:22:39;1.50;99.90
48488;DHT22;34289;48.572;13.378;2023-02-15T12:27:48;1.90;99.90
48488;DHT22;34289;48.572;13.378;2023-02-15T12:30:35;2.00;99.90
48488;DHT22;34289;48.572;13.378;2023-02-15T12:33:22;1.90;99.90
48488;DHT22;34289;48.572;13.378;2023-02-15T12:38:26;1.60;99.90
48488;DHT22;34289;48.572;13.378;2023-02-15T12:41:02;1.70;99.90
48488;DHT22;34289;48.572;13.378;2023-02-15T12:43:36;1.90;99.90
48488;DHT22;34289;48.572;13.378;2023-02-15T12:46:24;2.40;99.90
48488;DHT22;34289;48.572;13.378;2023-02-15T12:51:59;1.50;99.90
48488;DHT22;34289;48.572;13.378;2023-02-15T12:54:32;1.40;99.90
48488;DHT22;34289;48.572;13.378;2023-02-15T12:59:51;1.40;99.90
48488;DHT22;34289;48.572;13.378;2023-02-15T13:02:27;1.50;99.90
48488;DHT22;34289;48.572;13.378;2023-02-15T13:04:54;1.50;99.90
48488;DHT22;34289;48.572;13.378;2023-02-15T13:07:21;1.60;99.90
48488;DHT22;34289;48.572;13.378;2023-02-15T13:09:47;1.50;99.90
48488;DHT22;34289;48.572;13.378;2023-02-15T13:14:47;1.20;99.90
48488;DHT22;34289;48.572;13.378;2023-02-15T13:17:16;1.30;99.90
48488;DHT22;34289;48.572;13.378;2023-02-15T13:19:48;1.50;99.90
48488;DHT22;34289;48.572;13.378;2023-02-15T13:22:39;1.60;99.90
48488;DHT22;34289;48.572;13.378;2023-02-15T13:25:21;1.60;99.90
48488;DHT22;34289;48.572;13.378;2023-02-15T13:28:14;1.60;99.90
48488;DHT22;34289;48.572;13.378;2023-02-15T13:30:46;1.70;99.90
48488;DHT22;34289;48.572;13.378;2023-02-15T13:33:33;1.70;99.90
48488;DHT22;34289;48.572;13.378;2023-02-15T13:36:20;1.70;99.90
48488;DHT22;34289;48.572;13.378;2023-02-15T13:39:15;1.70;99.90
48488;DHT22;34289;48.572;13.378;2023-02-15T13:41:58;1.80;99.90
48488;DHT22;34289;48.572;13.378;2023-02-15T13:47:51;1.70;99.90
48488;DHT22;34289;48.572;13.378;2023-02-15T13:50:39;1.70;99.90
48488;DHT22;34289;48.572;13.378;2023-02-15T14:03:56;1.70;99.90
48488;DHT22;34289;48.572;13.378;2023-02-15T14:06:44;1.70;99.90
48488;DHT22;34289;48.572;13.378;2023-02-15T14:09:28;1.50;99.90
48488;DHT22;34289;48.572;13.378;2023-02-15T14:26:13;1.70;99.90
48488;DHT22;34289;48.572;13.378;2023-02-15T14:29:05;1.70;99.90
48488;DHT22;34289;48.572;13.378;2023-02-15T14:31:37;1.70;99.90
48488;DHT22;34289;48.572;13.378;2023-02-15T14:34:05;2.10;99.90
48488;DHT22;34289;48.572;13.378;2023-02-15T14:36:32;1.60;99.90
48488;DHT22;34289;48.572;13.378;2023-02-15T14:39:12;1.50;99.90
48488;DHT22;34289;48.572;13.378;2023-02-15T14:42:09;1.40;99.90
48488;DHT22;34289;48.572;13.378;2023-02-15T14:44:40;1.20;99.90
48488;DHT22;34289;48.572;13.378;2023-02-15T14:47:18;1.10;99.90
48488;DHT22;34289;48.572;13.378;2023-02-15T14:49:45;0.90;99.90
48488;DHT22;34289;48.572;13.378;2023-02-15T14:52:11;1.30;99.90
48488;DHT22;34289;48.572;13.378;2023-02-15T15:02:17;0.90;99.90
48488;DHT22;34289;48.572;13.378;2023-02-15T15:05:00;0.80;99.90
48488;DHT22;34289;48.572;13.378;2023-02-15T15:08:19;0.70;99.90
48488;DHT22;34289;48.572;13.378;2023-02-15T15:15:12;0.70;99.90
48488;DHT22;34289;48.572;13.378;2023-02-15T15:20:11;1.00;99.90
48488;DHT22;34289;48.572;13.378;2023-02-15T15:22:40;1.10;99.90
48488;DHT22;34289;48.572;13.378;2023-02-15T15:25:10;1.10;99.90
48488;DHT22;34289;48.572;13.378;2023-02-15T15:36:22;0.90;99.90
48488;DHT22;34289;48.572;13.378;2023-02-15T15:39:17;0.80;99.90
48488;DHT22;34289;48.572;13.378;2023-02-15T15:42:03;0.80;99.90
48488;DHT22;34289;48.572;13.378;2023-02-15T15:49:58;0.90;99.90
48488;DHT22;34289;48.572;13.378;2023-02-15T15:52:24;0.90;99.90
48488;DHT22;34289;48.572;13.378;2023-02-15T15:55:04;1.00;99.90
48488;DHT22;34289;48.572;13.378;2023-02-15T15:57:55;1.30;99.90
48488;DHT22;34289;48.572;13.378;2023-02-15T16:03:24;1.50;99.90
48488;DHT22;34289;48.572;13.378;2023-02-15T16:05:50;1.50;99.90
48488;DHT22;34289;48.572;13.378;2023-02-15T16:08:34;1.50;99.90
48488;DHT22;34289;48.572;13.378;2023-02-15T16:11:13;1.40;99.90
48488;DHT22;34289;48.572;13.378;2023-02-15T16:13:41;1.30;99.90
48488;DHT22;34289;48.572;13.378;2023-02-15T16:16:07;1.60;99.90
48488;DHT22;34289;48.572;13.378;2023-02-15T16:18:37;1.30;99.90
48488;DHT22;34289;48.572;13.378;2023-02-15T16:21:04;1.10;99.90
48488;DHT22;34289;48.572;13.378;2023-02-15T16:28:39;0.80;99.90
48488;DHT22;34289;48.572;13.378;2023-02-15T16:31:13;0.90;99.90
48488;DHT22;34289;48.572;13.378;2023-02-15T16:33:40;1.00;99.90
48488;DHT22;34289;48.572;13.378;2023-02-15T16:36:11;1.00;99.90
48488;DHT22;34289;48.572;13.378;2023-02-15T16:41:30;0.90;99.90
48488;DHT22;34289;48.572;13.378;2023-02-15T16:44:03;0.90;99.90
48488;DHT22;34289;48.572;13.378;2023-02-15T16:46:44;0.90;99.90
48488;DHT22;34289;48.572;13.378;2023-02-15T16:49:21;1.00;99.90
48488;DHT22;34289;48.572;13.378;2023-02-15T16:54:21;2.00;99.90
48488;DHT22;34289;48.572;13.378;2023-02-15T16:56:48;1.10;99.90
48488;DHT22;34289;48.572;13.378;2023-02-15T16:59:35;2.70;99.90
48488;DHT22;34289;48.572;13.378;2023-02-15T17:02:13;0.80;99.90
48488;DHT22;34289;48.572;13.378;2023-02-15T17:04:40;0.90;99.90
48488;DHT22;34289;48.572;13.378;2023-02-15T17:07:18;0.80;99.90
48488;DHT22;34289;48.572;13.378;2023-02-15T17:09:52;0.90;99.90
48488;DHT22;34289;48.572;13.378;2023-02-15T17:12:47;1.00;99.90
48488;DHT22;34289;48.572;13.378;2023-02-15T17:15:34;0.90;99.90
48488;DHT22;34289;48.572;13.378;2023-02-15T17:18:18;0.90;99.90
48488;DHT22;34289;48.572;13.378;2023-02-15T17:20:46;0.90;99.90
48488;DHT22;34289;48.572;13.378;2023-02-15T17:23:27;0.90;99.90
48488;DHT22;34289;48.572;13.378;2023-02-15T17:25:54;0.80;99.90
48488;DHT22;34289;48.572;13.378;2023-02-15T17:28:25;0.80;99.90
48488;DHT22;34289;48.572;13.378;2023-02-15T17:30:52;0.70;99.90
48488;DHT22;34289;48.572;13.378;2023-02-15T17:38:32;0.70;99.90
48488;DHT22;34289;48.572;13.378;2023-02-15T17:40:58;0.70;99.90
48488;DHT22;34289;48.572;13.378;2023-02-15T17:43:26;0.70;99.90
48488;DHT22;34289;48.572;13.378;2023-02-15T17:45:52;0.70;99.90
48488;DHT22;34289;48.572;13.378;2023-02-15T17:48:30;0.80;99.90
48488;DHT22;34289;48.572;13.378;2023-02-15T17:51:00;0.80;99.90
48488;DHT22;34289;48.572;13.378;2023-02-15T17:53:26;0.70;99.90
48488;DHT22;34289;48.572;13.378;2023-02-15T17:55:52;0.60;99.90
48488;DHT22;34289;48.572;13.378;2023-02-15T17:58:19;0.70;99.90
48488;DHT22;34289;48.572;13.378;2023-02-15T18:00:48;0.80;99.90
48488;DHT22;34289;48.572;13.378;2023-02-15T18:06:26;0.60;99.90
48488;DHT22;34289;48.572;13.378;2023-02-15T18:09:15;0.60;99.90
48488;DHT22;34289;48.572;13.378;2023-02-15T18:12:00;0.70;99.90
48488;DHT22;34289;48.572;13.378;2023-02-15T18:14:26;0.80;99.90
48488;DHT22;34289;48.572;13.378;2023-02-15T18:16:52;0.80;99.90
48488;DHT22;34289;48.572;13.378;2023-02-15T18:19:22;1.00;99.90
48488;DHT22;34289;48.572;13.378;2023-02-15T18:21:48;0.70;99.90
48488;DHT22;34289;48.572;13.378;2023-02-15T18:24:21;0.70;99.90
48488;DHT22;34289;48.572;13.378;2023-02-15T18:26:49;0.60;99.90
48488;DHT22;34289;48.572;13.378;2023-02-15T18:29:15;0.60;99.90
48488;DHT22;34289;48.572;13.378;2023-02-15T18:31:41;0.40;99.90
48488;DHT22;34289;48.572;13.378;2023-02-15T18:34:19;0.40;99.90
48488;DHT22;34289;48.572;13.378;2023-02-15T18:36:45;0.40;99.90
48488;DHT22;34289;48.572;13.378;2023-02-15T18:41:52;0.40;99.90
48488;DHT22;34289;48.572;13.378;2023-02-15T18:44:18;0.40;99.90
48488;DHT22;34289;48.572;13.378;2023-02-15T18:46:44;0.40;99.90
48488;DHT22;34289;48.572;13.378;2023-02-15T18:49:09;1.40;99.90
48488;DHT22;34289;48.572;13.378;2023-02-15T18:51:35;0.50;99.90
48488;DHT22;34289;48.572;13.378;2023-02-15T18:54:05;0.60;99.90
48488;DHT22;34289;48.572;13.378;2023-02-15T18:56:31;0.60;99.90
48488;DHT22;34289;48.572;13.378;2023-02-15T18:58:57;0.60;99.90
48488;DHT22;34289;48.572;13.378;2023-02-15T19:01:23;0.60;99.90
48488;DHT22;34289;48.572;13.378;2023-02-15T19:03:50;0.60;99.90
48488;DHT22;34289;48.572;13.378;2023-02-15T19:06:20;0.60;99.90
48488;DHT22;34289;48.572;13.378;2023-02-15T19:08:48;0.50;99.90
48488;DHT22;34289;48.572;13.378;2023-02-15T19:11:18;0.50;99.90
48488;DHT22;34289;48.572;13.378;2023-02-15T19:13:45;0.50;99.90
48488;DHT22;34289;48.572;13.378;2023-02-15T19:16:29;0.30;99.90
48488;DHT22;34289;48.572;13.378;2023-02-15T19:18:55;0.10;99.90
48488;DHT22;34289;48.572;13.378;2023-02-15T19:21:21;0.20;99.90
48488;DHT22;34289;48.572;13.378;2023-02-15T19:24:01;0.20;99.90
48488;DHT22;34289;48.572;13.378;2023-02-15T19:26:28;0.20;99.90
48488;DHT22;34289;48.572;13.378;2023-02-15T19:28:59;0.20;99.90
48488;DHT22;34289;48.572;13.378;2023-02-15T19:31:25;0.20;99.90
48488;DHT22;34289;48.572;13.378;2023-02-15T19:33:51;0.00;99.90
48488;DHT22;34289;48.572;13.378;2023-02-15T19:36:18;0.00;99.90
48488;DHT22;34289;48.572;13.378;2023-02-15T19:38:48;0.10;99.90
48488;DHT22;34289;48.572;13.378;2023-02-15T19:41:23;0.10;99.90
48488;DHT22;34289;48.572;13.378;2023-02-15T19:43:51;0.10;99.90
48488;DHT22;34289;48.572;13.378;2023-02-15T19:46:20;0.10;99.90
48488;DHT22;34289;48.572;13.378;2023-02-15T19:48:48;0.10;99.90
48488;DHT22;34289;48.572;13.378;2023-02-15T19:51:13;0.20;99.90
48488;DHT22;34289;48.572;13.378;2023-02-15T19:53:39;0.20;99.90
48488;DHT22;34289;48.572;13.378;2023-02-15T19:56:10;0.20;99.90
48488;DHT22;34289;48.572;13.378;2023-02-15T19:58:36;0.20;99.90
48488;DHT22;34289;48.572;13.378;2023-02-15T20:01:03;0.20;99.90
48488;DHT22;34289;48.572;13.378;2023-02-15T20:03:28;0.20;99.90
48488;DHT22;34289;48.572;13.378;2023-02-15T20:05:54;0.10;99.90
48488;DHT22;34289;48.572;13.378;2023-02-15T20:08:21;0.10;99.90
48488;DHT22;34289;48.572;13.378;2023-02-15T20:10:47;0.00;99.90
48488;DHT22;34289;48.572;13.378;2023-02-15T20:13:17;0.00;99.90
48488;DHT22;34289;48.572;13.378;2023-02-15T20:15:44;-0.10;99.90
48488;DHT22;34289;48.572;13.378;2023-02-15T20:18:10;-0.10;99.90
48488;DHT22;34289;48.572;13.378;2023-02-15T20:23:23;-0.10;99.90
48488;DHT22;34289;48.572;13.378;2023-02-15T20:25:50;-0.10;99.90
48488;DHT22;34289;48.572;13.378;2023-02-15T20:28:22;0.00;99.90
48488;DHT22;34289;48.572;13.378;2023-02-15T20:30:48;0.10;99.90
48488;DHT22;34289;48.572;13.378;2023-02-15T20:33:14;0.00;99.90
48488;DHT22;34289;48.572;13.378;2023-02-15T20:35:41;0.00;99.90
48488;DHT22;34289;48.572;13.378;2023-02-15T20:38:30;0.00;99.90
48488;DHT22;34289;48.572;13.378;2023-02-15T20:40:57;0.00;99.90
48488;DHT22;34289;48.572;13.378;2023-02-15T20:43:42;0.10;99.90
48488;DHT22;34289;48.572;13.378;2023-02-15T20:46:07;-0.10;99.90
48488;DHT22;34289;48.572;13.378;2023-02-15T20:48:34;-0.20;99.90
48488;DHT22;34289;48.572;13.378;2023-02-15T20:50:59;-0.30;99.90
48488;DHT22;34289;48.572;13.378;2023-02-15T20:53:31;-0.40;99.90
48488;DHT22;34289;48.572;13.378;2023-02-15T20:55:57;-0.30;99.90
48488;DHT22;34289;48.572;13.378;2023-02-15T20:58:25;-0.20;99.90
48488;DHT22;34289;48.572;13.378;2023-02-15T21:00:51;-0.20;99.90
48488;DHT22;34289;48.572;13.378;2023-02-15T21:03:21;-0.10;99.90